sensor_id;sensor_type;location;lat;lon;timestamp;pressure;altitude;pressure_sealevel;temperature;humidity
62864;BME280;48954;59.950;11.014;2023-04-27T00:02:18;98816.44;;;-0.68;76.84
62864;BME280;48954;59.950;11.014;2023-04-27T00:04:43;98812.66;;;-0.68;77.25
62864;BME280;48954;59.950;11.014;2023-04-27T00:07:10;98817.84;;;-0.68;77.34
62864;BME280;48954;59.950;11.014;2023-04-27T00:09:36;98819.53;;;-0.66;77.30
62864;BME280;48954;59.950;11.014;2023-04-27T00:12:02;98825.45;;;-0.66;77.13
62864;BME280;48954;59.950;11.014;2023-04-27T00:14:28;98823.13;;;-0.66;77.38
62864;BME280;48954;59.950;11.014;2023-04-27T00:16:54;98828.36;;;-0.64;77.30
62864;BME280;48954;59.950;11.014;2023-04-27T00:19:20;98822.36;;;-0.64;77.30
62864;BME280;48954;59.950;11.014;2023-04-27T00:21:46;98827.55;;;-0.62;77.35
62864;BME280;48954;59.950;11.014;2023-04-27T00:24:12;98825.88;;;-0.62;77.29
62864;BME280;48954;59.950;11.014;2023-04-27T00:26:38;98829.91;;;-0.59;77.41
62864;BME280;48954;59.950;11.014;2023-04-27T00:29:04;98829.65;;;-0.57;77.36
62864;BME280;48954;59.950;11.014;2023-04-27T00:31:30;98833.09;;;-0.56;77.43
62864;BME280;48954;59.950;11.014;2023-04-27T00:33:56;98836.29;;;-0.54;77.55
62864;BME280;48954;59.950;11.014;2023-04-27T00:36:22;98833.95;;;-0.52;77.37
62864;BME280;48954;59.950;11.014;2023-04-27T00:38:48;98834.80;;;-0.50;77.35
62864;BME280;48954;59.950;11.014;2023-04-27T00:41:14;98834.26;;;-0.47;77.28
62864;BME280;48954;59.950;11.014;2023-04-27T00:43:41;98833.19;;;-0.45;77.14
62864;BME280;48954;59.950;11.014;2023-04-27T00:46:09;98839.63;;;-0.44;77.24
62864;BME280;48954;59.950;11.014;2023-04-27T00:48:36;98833.60;;;-0.42;77.05
62864;BME280;48954;59.950;11.014;2023-04-27T00:51:03;98833.61;;;-0.41;77.17
62864;BME280;48954;59.950;11.014;2023-04-27T00:53:30;98830.77;;;-0.38;77.17
62864;BME280;48954;59.950;11.014;2023-04-27T00:55:56;98831.36;;;-0.36;76.95
62864;BME280;48954;59.950;11.014;2023-04-27T00:58:22;98830.68;;;-0.32;76.79
62864;BME280;48954;59.950;11.014;2023-04-27T01:00:48;98826.79;;;-0.30;76.79
62864;BME280;48954;59.950;11.014;2023-04-27T01:03:14;98823.51;;;-0.28;76.67
62864;BME280;48954;59.950;11.014;2023-04-27T01:05:40;98820.27;;;-0.26;76.74
62864;BME280;48954;59.950;11.014;2023-04-27T01:08:06;98823.43;;;-0.24;76.58
62864;BME280;48954;59.950;11.014;2023-04-27T01:10:32;98824.02;;;-0.23;76.54
62864;BME280;48954;59.950;11.014;2023-04-27T01:12:58;98823.41;;;-0.23;76.50
62864;BME280;48954;59.950;11.014;2023-04-27T01:15:24;98826.52;;;-0.21;76.25
62864;BME280;48954;59.950;11.014;2023-04-27T01:17:58;98822.00;;;-0.20;76.64
62864;BME280;48954;59.950;11.014;2023-04-27T01:20:24;98826.79;;;-0.19;76.47
62864;BME280;48954;59.950;11.014;2023-04-27T01:22:52;98829.58;;;-0.19;76.48
62864;BME280;48954;59.950;11.014;2023-04-27T01:25:18;98831.38;;;-0.17;76.54
62864;BME280;48954;59.950;11.014;2023-04-27T01:27:44;98830.55;;;-0.16;76.22
62864;BME280;48954;59.950;11.014;2023-04-27T01:30:10;98830.96;;;-0.16;76.44
62864;BME280;48954;59.950;11.014;2023-04-27T01:32:36;98834.46;;;-0.15;76.12
62864;BME280;48954;59.950;11.014;2023-04-27T01:35:04;98834.38;;;-0.14;76.21
62864;BME280;48954;59.950;11.014;2023-04-27T01:37:30;98834.52;;;-0.12;75.94
62864;BME280;48954;59.950;11.014;2023-04-27T01:39:56;98834.28;;;-0.11;76.06
62864;BME280;48954;59.950;11.014;2023-04-27T01:42:22;98839.17;;;-0.10;76.02
62864;BME280;48954;59.950;11.014;2023-04-27T01:44:48;98842.41;;;-0.10;75.94
62864;BME280;48954;59.950;11.014;2023-04-27T01:47:14;98847.58;;;-0.09;76.04
62864;BME280;48954;59.950;11.014;2023-04-27T01:49:41;98843.80;;;-0.07;75.77
62864;BME280;48954;59.950;11.014;2023-04-27T01:52:07;98845.59;;;-0.03;75.86
62864;BME280;48954;59.950;11.014;2023-04-27T01:54:33;98848.71;;;0.01;75.61
62864;BME280;48954;59.950;11.014;2023-04-27T01:56:59;98844.44;;;0.06;75.05
62864;BME280;48954;59.950;11.014;2023-04-27T01:59:25;98844.71;;;0.10;75.09
62864;BME280;48954;59.950;11.014;2023-04-27T02:01:51;98836.89;;;0.12;74.93
62864;BME280;48954;59.950;11.014;2023-04-27T02:04:17;98835.27;;;0.16;74.83
62864;BME280;48954;59.950;11.014;2023-04-27T02:06:43;98838.39;;;0.21;74.46
62864;BME280;48954;59.950;11.014;2023-04-27T02:09:09;98838.88;;;0.25;74.36
62864;BME280;48954;59.950;11.014;2023-04-27T02:11:35;98836.99;;;0.28;74.06
62864;BME280;48954;59.950;11.014;2023-04-27T02:14:01;98836.60;;;0.32;73.95
62864;BME280;48954;59.950;11.014;2023-04-27T02:16:27;98837.45;;;0.35;73.60
62864;BME280;48954;59.950;11.014;2023-04-27T02:18:53;98834.47;;;0.37;73.36
62864;BME280;48954;59.950;11.014;2023-04-27T02:21:19;98836.69;;;0.41;73.07
62864;BME280;48954;59.950;11.014;2023-04-27T02:23:45;98841.98;;;0.43;73.18
62864;BME280;48954;59.950;11.014;2023-04-27T02:26:15;98842.40;;;0.45;73.02
62864;BME280;48954;59.950;11.014;2023-04-27T02:28:41;98848.05;;;0.47;73.08
62864;BME280;48954;59.950;11.014;2023-04-27T02:31:07;98849.10;;;0.48;72.77
62864;BME280;48954;59.950;11.014;2023-04-27T02:33:33;98852.04;;;0.49;72.47
62864;BME280;48954;59.950;11.014;2023-04-27T02:35:59;98851.63;;;0.51;72.60
62864;BME280;48954;59.950;11.014;2023-04-27T02:38:25;98854.95;;;0.52;72.59
62864;BME280;48954;59.950;11.014;2023-04-27T02:40:54;98854.27;;;0.56;72.33
62864;BME280;48954;59.950;11.014;2023-04-27T02:43:20;98857.84;;;0.59;72.11
62864;BME280;48954;59.950;11.014;2023-04-27T02:45:47;98853.11;;;0.62;72.27
62864;BME280;48954;59.950;11.014;2023-04-27T02:48:13;98855.81;;;0.64;72.02
62864;BME280;48954;59.950;11.014;2023-04-27T02:50:40;98855.42;;;0.67;71.59
62864;BME280;48954;59.950;11.014;2023-04-27T02:53:06;98856.84;;;0.69;71.83
62864;BME280;48954;59.950;11.014;2023-04-27T02:55:33;98858.88;;;0.70;71.86
62864;BME280;48954;59.950;11.014;2023-04-27T02:57:58;98858.14;;;0.69;71.76
62864;BME280;48954;59.950;11.014;2023-04-27T03:00:24;98860.88;;;0.68;71.67
62864;BME280;48954;59.950;11.014;2023-04-27T03:02:50;98863.93;;;0.67;71.63
62864;BME280;48954;59.950;11.014;2023-04-27T03:05:16;98862.94;;;0.66;71.61
62864;BME280;48954;59.950;11.014;2023-04-27T03:07:43;98864.50;;;0.66;71.68
62864;BME280;48954;59.950;11.014;2023-04-27T03:10:09;98866.02;;;0.66;71.56
62864;BME280;48954;59.950;11.014;2023-04-27T03:12:35;98869.88;;;0.66;71.58
62864;BME280;48954;59.950;11.014;2023-04-27T03:15:02;98865.14;;;0.65;71.25
62864;BME280;48954;59.950;11.014;2023-04-27T03:17:28;98865.69;;;0.65;71.41
62864;BME280;48954;59.950;11.014;2023-04-27T03:19:54;98864.13;;;0.63;71.40
62864;BME280;48954;59.950;11.014;2023-04-27T03:22:20;98868.91;;;0.64;71.25
62864;BME280;48954;59.950;11.014;2023-04-27T03:24:46;98867.03;;;0.64;71.16
62864;BME280;48954;59.950;11.014;2023-04-27T03:27:12;98872.34;;;0.63;71.17
62864;BME280;48954;59.950;11.014;2023-04-27T03:29:39;98870.71;;;0.61;71.22
62864;BME280;48954;59.950;11.014;2023-04-27T03:32:06;98874.11;;;0.60;71.14
62864;BME280;48954;59.950;11.014;2023-04-27T03:34:32;98874.21;;;0.60;71.08
62864;BME280;48954;59.950;11.014;2023-04-27T03:36:58;98876.53;;;0.61;71.11
62864;BME280;48954;59.950;11.014;2023-04-27T03:39:24;98877.75;;;0.62;71.24
62864;BME280;48954;59.950;11.014;2023-04-27T03:41:50;98883.45;;;0.63;70.92
62864;BME280;48954;59.950;11.014;2023-04-27T03:44:16;98877.89;;;0.63;70.93
62864;BME280;48954;59.950;11.014;2023-04-27T03:46:41;98879.92;;;0.63;70.95
62864;BME280;48954;59.950;11.014;2023-04-27T03:49:07;98884.23;;;0.64;71.02
62864;BME280;48954;59.950;11.014;2023-04-27T03:51:33;98883.61;;;0.65;70.89
62864;BME280;48954;59.950;11.014;2023-04-27T03:53:59;98891.92;;;0.66;70.82
62864;BME280;48954;59.950;11.014;2023-04-27T03:56:26;98891.45;;;0.65;70.80
62864;BME280;48954;59.950;11.014;2023-04-27T03:58:51;98898.58;;;0.67;70.88
62864;BME280;48954;59.950;11.014;2023-04-27T04:01:17;98900.58;;;0.69;70.81
62864;BME280;48954;59.950;11.014;2023-04-27T04:03:44;98905.13;;;0.72;70.69
62864;BME280;48954;59.950;11.014;2023-04-27T04:06:10;98903.53;;;0.74;70.74
62864;BME280;48954;59.950;11.014;2023-04-27T04:08:36;98907.98;;;0.76;70.66
62864;BME280;48954;59.950;11.014;2023-04-27T04:11:04;98909.10;;;0.80;70.82
62864;BME280;48954;59.950;11.014;2023-04-27T04:13:30;98908.65;;;0.84;70.30
62864;BME280;48954;59.950;11.014;2023-04-27T04:16:01;98910.00;;;0.88;70.46
62864;BME280;48954;59.950;11.014;2023-04-27T04:18:27;98908.75;;;0.92;70.38
62864;BME280;48954;59.950;11.014;2023-04-27T04:20:53;98911.94;;;0.95;70.21
62864;BME280;48954;59.950;11.014;2023-04-27T04:23:19;98913.93;;;0.98;70.33
62864;BME280;48954;59.950;11.014;2023-04-27T04:25:45;98917.61;;;1.02;70.03
62864;BME280;48954;59.950;11.014;2023-04-27T04:28:11;98919.40;;;1.04;69.90
62864;BME280;48954;59.950;11.014;2023-04-27T04:30:36;98920.95;;;1.07;70.05
62864;BME280;48954;59.950;11.014;2023-04-27T04:33:02;98919.88;;;1.11;69.96
62864;BME280;48954;59.950;11.014;2023-04-27T04:35:28;98919.68;;;1.14;69.79
62864;BME280;48954;59.950;11.014;2023-04-27T04:37:54;98921.85;;;1.17;69.66
62864;BME280;48954;59.950;11.014;2023-04-27T04:40:20;98924.07;;;1.20;69.80
62864;BME280;48954;59.950;11.014;2023-04-27T04:42:46;98926.63;;;1.23;69.61
62864;BME280;48954;59.950;11.014;2023-04-27T04:45:12;98927.92;;;1.26;69.52
62864;BME280;48954;59.950;11.014;2023-04-27T04:47:38;98929.00;;;1.28;69.79
62864;BME280;48954;59.950;11.014;2023-04-27T04:50:06;98932.32;;;1.28;69.73
62864;BME280;48954;59.950;11.014;2023-04-27T04:52:32;98935.34;;;1.28;69.58
62864;BME280;48954;59.950;11.014;2023-04-27T04:54:58;98933.19;;;1.28;69.68
62864;BME280;48954;59.950;11.014;2023-04-27T04:57:24;98936.99;;;1.30;69.86
62864;BME280;48954;59.950;11.014;2023-04-27T04:59:50;98936.92;;;1.32;69.69
62864;BME280;48954;59.950;11.014;2023-04-27T05:02:16;98937.06;;;1.35;69.57
62864;BME280;48954;59.950;11.014;2023-04-27T05:04:42;98936.75;;;1.38;69.71
62864;BME280;48954;59.950;11.014;2023-04-27T05:07:08;98936.85;;;1.42;69.63
62864;BME280;48954;59.950;11.014;2023-04-27T05:09:35;98941.85;;;1.49;69.73
62864;BME280;48954;59.950;11.014;2023-04-27T05:12:01;98940.26;;;1.54;69.67
62864;BME280;48954;59.950;11.014;2023-04-27T05:14:26;98943.02;;;1.61;69.62
62864;BME280;48954;59.950;11.014;2023-04-27T05:16:52;98946.83;;;1.66;69.50
62864;BME280;48954;59.950;11.014;2023-04-27T05:19:18;98950.83;;;1.73;69.40
62864;BME280;48954;59.950;11.014;2023-04-27T05:21:44;98950.13;;;1.78;69.49
62864;BME280;48954;59.950;11.014;2023-04-27T05:24:10;98950.13;;;1.81;69.48
62864;BME280;48954;59.950;11.014;2023-04-27T05:26:51;98955.23;;;1.84;69.38
62864;BME280;48954;59.950;11.014;2023-04-27T05:29:20;98960.16;;;1.84;69.22
62864;BME280;48954;59.950;11.014;2023-04-27T05:31:46;98957.41;;;1.85;69.31
62864;BME280;48954;59.950;11.014;2023-04-27T05:34:11;98955.98;;;1.89;69.35
62864;BME280;48954;59.950;11.014;2023-04-27T05:36:38;98954.16;;;1.92;69.00
62864;BME280;48954;59.950;11.014;2023-04-27T05:39:03;98955.61;;;1.99;69.21
62864;BME280;48954;59.950;11.014;2023-04-27T05:41:29;98954.97;;;2.05;69.24
62864;BME280;48954;59.950;11.014;2023-04-27T05:43:55;98958.42;;;2.10;68.84
62864;BME280;48954;59.950;11.014;2023-04-27T05:46:21;98958.33;;;2.15;68.92
62864;BME280;48954;59.950;11.014;2023-04-27T05:48:47;98958.35;;;2.24;68.79
62864;BME280;48954;59.950;11.014;2023-04-27T05:51:16;98962.80;;;2.29;68.50
62864;BME280;48954;59.950;11.014;2023-04-27T05:53:42;98964.05;;;2.35;68.53
62864;BME280;48954;59.950;11.014;2023-04-27T05:56:08;98964.66;;;2.42;68.61
62864;BME280;48954;59.950;11.014;2023-04-27T05:58:34;98969.54;;;2.50;68.44
62864;BME280;48954;59.950;11.014;2023-04-27T06:01:00;98969.77;;;2.57;68.58
62864;BME280;48954;59.950;11.014;2023-04-27T06:03:28;98972.75;;;2.64;68.21
62864;BME280;48954;59.950;11.014;2023-04-27T06:05:55;98972.62;;;2.64;67.68
62864;BME280;48954;59.950;11.014;2023-04-27T06:08:21;98970.00;;;2.65;67.62
62864;BME280;48954;59.950;11.014;2023-04-27T06:10:47;98973.66;;;2.71;67.47
62864;BME280;48954;59.950;11.014;2023-04-27T06:13:14;98976.60;;;2.74;67.41
62864;BME280;48954;59.950;11.014;2023-04-27T06:15:40;98980.69;;;2.77;67.19
62864;BME280;48954;59.950;11.014;2023-04-27T06:18:06;98980.58;;;2.80;67.01
62864;BME280;48954;59.950;11.014;2023-04-27T06:20:31;98980.30;;;2.79;66.98
62864;BME280;48954;59.950;11.014;2023-04-27T06:22:57;98982.05;;;2.80;67.19
62864;BME280;48954;59.950;11.014;2023-04-27T06:25:24;98980.75;;;2.85;67.07
62864;BME280;48954;59.950;11.014;2023-04-27T06:27:56;98984.95;;;2.91;67.05
62864;BME280;48954;59.950;11.014;2023-04-27T06:30:23;98986.92;;;2.97;66.67
62864;BME280;48954;59.950;11.014;2023-04-27T06:32:49;98987.80;;;3.04;66.67
62864;BME280;48954;59.950;11.014;2023-04-27T06:35:15;98988.52;;;3.10;66.54
62864;BME280;48954;59.950;11.014;2023-04-27T06:37:41;98992.15;;;3.14;66.47
62864;BME280;48954;59.950;11.014;2023-04-27T06:40:07;98990.86;;;3.20;66.23
62864;BME280;48954;59.950;11.014;2023-04-27T06:42:34;98993.89;;;3.25;66.18
62864;BME280;48954;59.950;11.014;2023-04-27T06:44:59;98995.27;;;3.30;66.31
62864;BME280;48954;59.950;11.014;2023-04-27T06:47:26;99000.86;;;3.34;65.86
62864;BME280;48954;59.950;11.014;2023-04-27T06:49:51;98997.89;;;3.36;65.69
62864;BME280;48954;59.950;11.014;2023-04-27T06:52:18;98998.71;;;3.39;65.66
62864;BME280;48954;59.950;11.014;2023-04-27T06:54:44;98993.60;;;3.43;65.30
62864;BME280;48954;59.950;11.014;2023-04-27T06:57:10;98993.45;;;3.51;65.40
62864;BME280;48954;59.950;11.014;2023-04-27T06:59:35;98991.42;;;3.59;64.91
62864;BME280;48954;59.950;11.014;2023-04-27T07:02:01;98995.39;;;3.74;65.25
62864;BME280;48954;59.950;11.014;2023-04-27T07:04:27;98994.20;;;3.86;64.99
62864;BME280;48954;59.950;11.014;2023-04-27T07:06:54;98996.98;;;3.88;64.08
62864;BME280;48954;59.950;11.014;2023-04-27T07:09:20;99004.67;;;3.92;64.51
62864;BME280;48954;59.950;11.014;2023-04-27T07:11:46;99004.98;;;4.03;64.54
62864;BME280;48954;59.950;11.014;2023-04-27T07:14:12;99006.60;;;4.11;64.56
62864;BME280;48954;59.950;11.014;2023-04-27T07:16:38;99007.61;;;4.18;64.22
62864;BME280;48954;59.950;11.014;2023-04-27T07:19:03;99004.82;;;4.18;63.73
62864;BME280;48954;59.950;11.014;2023-04-27T07:21:29;99009.13;;;4.21;64.16
62864;BME280;48954;59.950;11.014;2023-04-27T07:23:55;99006.34;;;4.30;64.15
62864;BME280;48954;59.950;11.014;2023-04-27T07:26:21;99008.30;;;4.35;63.51
62864;BME280;48954;59.950;11.014;2023-04-27T07:28:47;99008.20;;;4.46;63.63
62864;BME280;48954;59.950;11.014;2023-04-27T07:31:12;99016.09;;;4.60;63.82
62864;BME280;48954;59.950;11.014;2023-04-27T07:33:38;99016.75;;;4.68;63.29
62864;BME280;48954;59.950;11.014;2023-04-27T07:36:04;99019.23;;;4.73;63.08
62864;BME280;48954;59.950;11.014;2023-04-27T07:38:30;99026.86;;;4.82;63.34
62864;BME280;48954;59.950;11.014;2023-04-27T07:41:01;99020.92;;;4.98;62.48
62864;BME280;48954;59.950;11.014;2023-04-27T07:43:27;99018.61;;;5.13;61.23
62864;BME280;48954;59.950;11.014;2023-04-27T07:45:53;99023.18;;;5.27;61.39
62864;BME280;48954;59.950;11.014;2023-04-27T07:48:19;99019.76;;;5.37;60.99
62864;BME280;48954;59.950;11.014;2023-04-27T07:50:45;99025.59;;;5.62;61.22
62864;BME280;48954;59.950;11.014;2023-04-27T07:53:11;99030.65;;;5.80;59.80
62864;BME280;48954;59.950;11.014;2023-04-27T07:55:36;99033.20;;;5.77;59.28
62864;BME280;48954;59.950;11.014;2023-04-27T07:58:03;99038.36;;;5.82;60.16
62864;BME280;48954;59.950;11.014;2023-04-27T08:00:29;99041.67;;;5.76;59.07
62864;BME280;48954;59.950;11.014;2023-04-27T08:02:55;99041.45;;;5.74;59.36
62864;BME280;48954;59.950;11.014;2023-04-27T08:07:47;99054.23;;;5.84;58.48
62864;BME280;48954;59.950;11.014;2023-04-27T08:10:14;99057.34;;;5.98;58.81
62864;BME280;48954;59.950;11.014;2023-04-27T08:12:40;99055.96;;;6.07;58.16
62864;BME280;48954;59.950;11.014;2023-04-27T08:15:06;99058.63;;;6.07;57.94
62864;BME280;48954;59.950;11.014;2023-04-27T08:17:32;99052.88;;;6.20;57.98
62864;BME280;48954;59.950;11.014;2023-04-27T08:19:58;99053.55;;;6.50;57.97
62864;BME280;48954;59.950;11.014;2023-04-27T08:22:24;99052.50;;;6.80;57.72
62864;BME280;48954;59.950;11.014;2023-04-27T08:24:50;99053.19;;;6.95;56.78
62864;BME280;48954;59.950;11.014;2023-04-27T08:27:15;99063.48;;;7.06;56.44
62864;BME280;48954;59.950;11.014;2023-04-27T08:29:48;99054.40;;;7.06;56.05
62864;BME280;48954;59.950;11.014;2023-04-27T08:32:14;99058.42;;;7.17;56.72
62864;BME280;48954;59.950;11.014;2023-04-27T08:34:40;99059.17;;;7.25;55.71
62864;BME280;48954;59.950;11.014;2023-04-27T08:37:06;99059.63;;;7.21;54.88
62864;BME280;48954;59.950;11.014;2023-04-27T08:39:32;99058.06;;;7.34;54.65
62864;BME280;48954;59.950;11.014;2023-04-27T08:41:57;99058.74;;;7.63;55.00
62864;BME280;48954;59.950;11.014;2023-04-27T08:44:23;99057.86;;;7.86;54.75
62864;BME280;48954;59.950;11.014;2023-04-27T08:46:49;99058.35;;;8.06;54.43
62864;BME280;48954;59.950;11.014;2023-04-27T08:49:16;99062.52;;;8.22;53.56
62864;BME280;48954;59.950;11.014;2023-04-27T08:51:42;99061.94;;;8.16;52.18
62864;BME280;48954;59.950;11.014;2023-04-27T08:54:08;99066.65;;;8.21;51.90
62864;BME280;48954;59.950;11.014;2023-04-27T08:56:34;99065.92;;;8.28;51.23
62864;BME280;48954;59.950;11.014;2023-04-27T08:59:00;99066.01;;;8.28;52.10
62864;BME280;48954;59.950;11.014;2023-04-27T09:01:26;99069.70;;;8.31;52.00
62864;BME280;48954;59.950;11.014;2023-04-27T09:03:56;99068.69;;;8.13;50.33
62864;BME280;48954;59.950;11.014;2023-04-27T09:06:30;99071.97;;;8.02;51.34
62864;BME280;48954;59.950;11.014;2023-04-27T09:08:56;99069.84;;;8.16;51.07
62864;BME280;48954;59.950;11.014;2023-04-27T09:11:30;99070.64;;;8.35;51.70
62864;BME280;48954;59.950;11.014;2023-04-27T09:13:56;99063.95;;;8.70;51.29
62864;BME280;48954;59.950;11.014;2023-04-27T09:16:24;99070.80;;;8.88;50.69
62864;BME280;48954;59.950;11.014;2023-04-27T09:18:51;99068.53;;;9.07;49.78
62864;BME280;48954;59.950;11.014;2023-04-27T09:21:28;99069.09;;;9.11;48.52
62864;BME280;48954;59.950;11.014;2023-04-27T09:23:54;99071.42;;;9.02;48.41
62864;BME280;48954;59.950;11.014;2023-04-27T09:26:22;99072.98;;;9.11;48.88
62864;BME280;48954;59.950;11.014;2023-04-27T09:28:51;99073.31;;;9.11;48.44
62864;BME280;48954;59.950;11.014;2023-04-27T09:31:17;99078.48;;;9.12;48.25
62864;BME280;48954;59.950;11.014;2023-04-27T09:33:43;99078.69;;;8.96;47.61
62864;BME280;48954;59.950;11.014;2023-04-27T09:36:10;99082.11;;;8.77;47.34
62864;BME280;48954;59.950;11.014;2023-04-27T09:38:36;99091.48;;;8.56;47.79
62864;BME280;48954;59.950;11.014;2023-04-27T09:41:02;99089.30;;;8.60;47.95
62864;BME280;48954;59.950;11.014;2023-04-27T09:43:28;99090.20;;;8.78;47.26
62864;BME280;48954;59.950;11.014;2023-04-27T09:45:55;99090.38;;;9.01;47.52
62864;BME280;48954;59.950;11.014;2023-04-27T09:48:22;99092.48;;;9.28;46.94
62864;BME280;48954;59.950;11.014;2023-04-27T09:50:49;99097.50;;;9.37;45.51
62864;BME280;48954;59.950;11.014;2023-04-27T09:53:23;99090.36;;;9.61;45.49
62864;BME280;48954;59.950;11.014;2023-04-27T10:07:04;99096.19;;;9.78;44.65
62864;BME280;48954;59.950;11.014;2023-04-27T10:09:36;99098.84;;;9.47;43.75
62864;BME280;48954;59.950;11.014;2023-04-27T10:12:34;99110.23;;;9.16;43.45
62864;BME280;48954;59.950;11.014;2023-04-27T10:15:16;99110.71;;;9.00;43.96
62864;BME280;48954;59.950;11.014;2023-04-27T10:17:49;99109.52;;;9.06;43.98
62864;BME280;48954;59.950;11.014;2023-04-27T10:20:16;99109.39;;;8.99;43.33
62864;BME280;48954;59.950;11.014;2023-04-27T10:22:46;99116.83;;;8.87;43.97
62864;BME280;48954;59.950;11.014;2023-04-27T10:25:13;99121.88;;;8.73;44.08
62864;BME280;48954;59.950;11.014;2023-04-27T10:27:40;99120.06;;;8.80;43.49
62864;BME280;48954;59.950;11.014;2023-04-27T10:30:11;99117.20;;;9.02;42.26
62864;BME280;48954;59.950;11.014;2023-04-27T10:32:37;99119.00;;;9.02;41.97
62864;BME280;48954;59.950;11.014;2023-04-27T10:35:09;99124.08;;;8.96;41.98
62864;BME280;48954;59.950;11.014;2023-04-27T10:37:39;99125.08;;;8.75;40.95
62864;BME280;48954;59.950;11.014;2023-04-27T10:40:10;99121.52;;;8.46;41.10
62864;BME280;48954;59.950;11.014;2023-04-27T10:42:36;99129.80;;;8.32;41.26
62864;BME280;48954;59.950;11.014;2023-04-27T10:45:02;99133.85;;;8.48;41.73
62864;BME280;48954;59.950;11.014;2023-04-27T10:50:04;99134.09;;;9.35;40.50
62864;BME280;48954;59.950;11.014;2023-04-27T10:52:30;99139.60;;;9.69;40.44
62864;BME280;48954;59.950;11.014;2023-04-27T10:54:56;99140.56;;;9.86;40.32
62864;BME280;48954;59.950;11.014;2023-04-27T10:57:22;99141.83;;;9.91;39.43
62864;BME280;48954;59.950;11.014;2023-04-27T10:59:52;99146.28;;;9.71;39.04
62864;BME280;48954;59.950;11.014;2023-04-27T11:02:26;99147.56;;;9.62;39.63
62864;BME280;48954;59.950;11.014;2023-04-27T11:04:52;99153.59;;;9.52;39.14
62864;BME280;48954;59.950;11.014;2023-04-27T11:07:25;99147.09;;;9.34;39.06
62864;BME280;48954;59.950;11.014;2023-04-27T11:09:51;99152.14;;;9.27;39.03
62864;BME280;48954;59.950;11.014;2023-04-27T11:12:17;99156.10;;;9.38;39.21
62864;BME280;48954;59.950;11.014;2023-04-27T11:14:43;99151.77;;;9.46;38.84
62864;BME280;48954;59.950;11.014;2023-04-27T11:17:09;99153.83;;;9.43;38.71
62864;BME280;48954;59.950;11.014;2023-04-27T11:19:44;99159.64;;;9.48;38.53
62864;BME280;48954;59.950;11.014;2023-04-27T11:22:10;99161.66;;;9.56;38.61
62864;BME280;48954;59.950;11.014;2023-04-27T11:24:50;99158.03;;;9.51;38.24
62864;BME280;48954;59.950;11.014;2023-04-27T11:27:18;99159.56;;;9.43;38.08
62864;BME280;48954;59.950;11.014;2023-04-27T11:29:44;99161.29;;;9.43;39.10
62864;BME280;48954;59.950;11.014;2023-04-27T11:32:20;99163.85;;;9.46;38.91
62864;BME280;48954;59.950;11.014;2023-04-27T11:34:50;99162.11;;;9.45;38.89
62864;BME280;48954;59.950;11.014;2023-04-27T11:37:23;99167.61;;;9.42;38.79
62864;BME280;48954;59.950;11.014;2023-04-27T11:39:50;99168.45;;;9.44;38.23
62864;BME280;48954;59.950;11.014;2023-04-27T11:42:18;99170.54;;;9.52;38.43
62864;BME280;48954;59.950;11.014;2023-04-27T11:44:58;99173.11;;;9.70;38.71
62864;BME280;48954;59.950;11.014;2023-04-27T11:47:26;99172.92;;;9.93;38.47
62864;BME280;48954;59.950;11.014;2023-04-27T11:49:58;99172.63;;;10.03;37.94
62864;BME280;48954;59.950;11.014;2023-04-27T11:52:32;99175.73;;;9.96;37.01
62864;BME280;48954;59.950;11.014;2023-04-27T11:54:59;99182.58;;;9.93;37.08
62864;BME280;48954;59.950;11.014;2023-04-27T11:57:27;99179.04;;;10.08;36.83
62864;BME280;48954;59.950;11.014;2023-04-27T11:59:55;99183.88;;;10.25;37.00
62864;BME280;48954;59.950;11.014;2023-04-27T12:02:22;99185.38;;;10.37;36.45
62864;BME280;48954;59.950;11.014;2023-04-27T12:04:49;99192.95;;;10.62;36.71
62864;BME280;48954;59.950;11.014;2023-04-27T12:07:16;99192.58;;;10.75;36.60
62864;BME280;48954;59.950;11.014;2023-04-27T12:09:41;99192.71;;;10.80;36.20
62864;BME280;48954;59.950;11.014;2023-04-27T12:12:08;99202.44;;;10.72;35.94
62864;BME280;48954;59.950;11.014;2023-04-27T12:14:34;99202.63;;;10.73;36.68
62864;BME280;48954;59.950;11.014;2023-04-27T12:16:59;99207.90;;;10.82;37.02
62864;BME280;48954;59.950;11.014;2023-04-27T12:19:25;99214.52;;;10.89;36.51
62864;BME280;48954;59.950;11.014;2023-04-27T12:21:51;99216.91;;;10.80;36.90
62864;BME280;48954;59.950;11.014;2023-04-27T12:24:17;99220.09;;;10.76;36.79
62864;BME280;48954;59.950;11.014;2023-04-27T12:26:43;99225.07;;;10.60;36.18
62864;BME280;48954;59.950;11.014;2023-04-27T12:29:09;99228.00;;;10.34;36.48
62864;BME280;48954;59.950;11.014;2023-04-27T12:31:35;99226.24;;;10.28;36.47
62864;BME280;48954;59.950;11.014;2023-04-27T12:34:01;99226.63;;;10.08;36.12
62864;BME280;48954;59.950;11.014;2023-04-27T12:36:26;99230.62;;;10.03;36.65
62864;BME280;48954;59.950;11.014;2023-04-27T12:38:58;99230.73;;;9.90;35.91
62864;BME280;48954;59.950;11.014;2023-04-27T12:41:24;99235.60;;;9.86;36.32
62864;BME280;48954;59.950;11.014;2023-04-27T12:43:50;99239.23;;;9.96;37.00
62864;BME280;48954;59.950;11.014;2023-04-27T12:46:16;99241.00;;;10.05;36.14
62864;BME280;48954;59.950;11.014;2023-04-27T12:48:42;99238.02;;;10.05;35.79
62864;BME280;48954;59.950;11.014;2023-04-27T12:51:08;99245.39;;;9.98;35.99
62864;BME280;48954;59.950;11.014;2023-04-27T12:53:35;99244.67;;;10.04;36.60
62864;BME280;48954;59.950;11.014;2023-04-27T12:56:01;99249.28;;;10.07;36.49
62864;BME280;48954;59.950;11.014;2023-04-27T12:58:27;99246.96;;;9.99;36.75
62864;BME280;48954;59.950;11.014;2023-04-27T13:00:56;99256.32;;;9.95;36.61
62864;BME280;48954;59.950;11.014;2023-04-27T13:03:23;99259.93;;;10.00;36.32
62864;BME280;48954;59.950;11.014;2023-04-27T13:05:49;99255.65;;;9.92;36.06
62864;BME280;48954;59.950;11.014;2023-04-27T13:08:15;99264.99;;;9.80;36.80
62864;BME280;48954;59.950;11.014;2023-04-27T13:10:41;99263.05;;;9.72;36.73
62864;BME280;48954;59.950;11.014;2023-04-27T13:13:07;99272.52;;;9.61;36.56